This is the latest recevied weather packets stored in our database for station/object DM1HF-13. If no packets are shown the sender has not sent any weather packets the latest 10 day(s).
| Time | Temp. | Humidity | Pressure | Rain* | Wind** | Luminosity | Snow |
|---|---|---|---|---|---|---|---|
| 1776936016 | 14.44° C | 37% | 1026.5 hPa | 0 mm | - | 570 W/m² | - |
| 1776935716 | 14.44° C | 36% | 1026.5 hPa | 0 mm | - | 574 W/m² | - |
| 1776935416 | 13.89° C | 37% | 1026.6 hPa | 0 mm | - | 579 W/m² | - |
| 1776935116 | 13.33° C | 37% | 1026.7 hPa | 0 mm | - | 583 W/m² | - |
| 1776934816 | 13.33° C | 36% | 1026.7 hPa | 0 mm | - | 585 W/m² | - |
| 1776934516 | 13.33° C | 36% | 1026.7 hPa | 0 mm | - | 586 W/m² | - |
| 1776934216 | 13.33° C | 36% | 1026.7 hPa | 0 mm | - | 590 W/m² | - |
| 1776933916 | 12.78° C | 35% | 1026.7 hPa | 0 mm | - | 592 W/m² | - |
| 1776933616 | 13.33° C | 36% | 1026.8 hPa | 0 mm | - | 589 W/m² | - |
| 1776933316 | 13.33° C | 36% | 1026.7 hPa | 0 mm | - | 589 W/m² | - |
| 1776933016 | 13.33° C | 35% | 1026.7 hPa | 0 mm | - | 588 W/m² | - |
| 1776932716 | 12.78° C | 37% | 1026.8 hPa | 0 mm | - | 589 W/m² | - |
| 1776932416 | 12.78° C | 38% | 1026.8 hPa | 0 mm | - | 589 W/m² | - |
| 1776932116 | 12.22° C | 41% | 1026.9 hPa | 0 mm | - | 585 W/m² | - |
| 1776931816 | 12.22° C | 39% | 1026.8 hPa | 0 mm | - | 587 W/m² | - |
| 1776931516 | 12.22° C | 40% | 1026.8 hPa | 0 mm | - | 581 W/m² | - |
| 1776931216 | 12.78° C | 41% | 1026.9 hPa | 0 mm | - | 574 W/m² | - |
| 1776930916 | 12.22° C | 41% | 1026.9 hPa | 0 mm | - | 572 W/m² | - |
| 1776930617 | 11.67° C | 41% | 1026.9 hPa | 0 mm | - | 567 W/m² | - |
| 1776930316 | 11.67° C | 43% | 1026.8 hPa | 0 mm | - | 564 W/m² | - |
| 1776930016 | 11.67° C | 44% | 1026.9 hPa | 0 mm | - | 557 W/m² | - |
| 1776929716 | 11.11° C | 43% | 1026.9 hPa | 0 mm | - | 555 W/m² | - |
| 1776929416 | 11.11° C | 46% | 1026.9 hPa | 0 mm | - | 548 W/m² | - |
| 1776929116 | 11.11° C | 47% | 1027.1 hPa | 0 mm | - | 538 W/m² | - |
| 1776928816 | 10.56° C | 51% | 1027.1 hPa | 0 mm | - | 529 W/m² | - |
* Rain latest hour (hover to see other rain measurements)
** Current wind speed in m/s (hover to see current wind gust speed)